Dunswell, United Kingdom
Current Conditions -  °F | °C
As of 10:50 AM on Friday 31 Oct 2014 (Local Time) from EGXV Reporting Station
Haze Haze  
Wind Chill: 16°   Ceiling: 700
Heat Index: 16°   Visibility: 3mi
Dew Point: 15°   Wind: 9mph
Humidity: 94%   Direction: 180°S
Pressure: 29.94"   Gusts: NA
Location:  53.8°N, 0.37°W
Report Text: EGXV 311050Z AUTO 18008KT 5000 BR BKN007/// 16/15 Q1014
Loading
Personal Weather Stations






























Interactive Weather Map
Tropical Storm Tracking
New forecast layout! Learn more

10-Day Weather Forecast

Advertisements
Track Severe Weather on mobile